sensor_id;sensor_type;location;lat;lon;timestamp;temperature;humidity
10278;DHT22;5184;51.376;7.148;2022-11-20T00:00:16;-0.70;99.90
10278;DHT22;5184;51.376;7.148;2022-11-20T00:02:42;-0.70;99.90
10278;DHT22;5184;51.376;7.148;2022-11-20T00:05:08;-0.60;99.90
10278;DHT22;5184;51.376;7.148;2022-11-20T00:07:35;-0.60;1.00
10278;DHT22;5184;51.376;7.148;2022-11-20T00:10:02;-0.60;1.00
10278;DHT22;5184;51.376;7.148;2022-11-20T00:12:29;1.20;1.00
10278;DHT22;5184;51.376;7.148;2022-11-20T00:14:56;0.40;99.90
10278;DHT22;5184;51.376;7.148;2022-11-20T00:17:23;0.40;99.90
10278;DHT22;5184;51.376;7.148;2022-11-20T00:19:49;1.70;18.50
10278;DHT22;5184;51.376;7.148;2022-11-20T00:22:16;1.80;1.00
10278;DHT22;5184;51.376;7.148;2022-11-20T00:24:43;1.10;99.90
10278;DHT22;5184;51.376;7.148;2022-11-20T00:27:11;0.70;99.90
10278;DHT22;5184;51.376;7.148;2022-11-20T00:29:38;0.50;99.90
10278;DHT22;5184;51.376;7.148;2022-11-20T00:32:05;0.50;99.90
10278;DHT22;5184;51.376;7.148;2022-11-20T00:34:31;0.30;1.00
10278;DHT22;5184;51.376;7.148;2022-11-20T00:36:58;0.30;1.00
10278;DHT22;5184;51.376;7.148;2022-11-20T00:39:25;0.00;99.90
10278;DHT22;5184;51.376;7.148;2022-11-20T00:41:53;-0.10;1.00
10278;DHT22;5184;51.376;7.148;2022-11-20T00:44:19;-0.10;1.00
10278;DHT22;5184;51.376;7.148;2022-11-20T00:46:46;-0.10;99.90
10278;DHT22;5184;51.376;7.148;2022-11-20T00:49:12;0.00;99.90
10278;DHT22;5184;51.376;7.148;2022-11-20T00:51:40;0.00;1.00
10278;DHT22;5184;51.376;7.148;2022-11-20T00:54:06;0.00;1.00
10278;DHT22;5184;51.376;7.148;2022-11-20T00:56:33;0.00;99.90
10278;DHT22;5184;51.376;7.148;2022-11-20T00:59:00;0.00;1.00
10278;DHT22;5184;51.376;7.148;2022-11-20T01:01:27;-0.10;1.00
10278;DHT22;5184;51.376;7.148;2022-11-20T01:03:54;0.00;99.90
10278;DHT22;5184;51.376;7.148;2022-11-20T01:06:22;-0.10;99.90
10278;DHT22;5184;51.376;7.148;2022-11-20T01:08:48;-0.10;99.90
10278;DHT22;5184;51.376;7.148;2022-11-20T01:11:16;-0.10;1.00
10278;DHT22;5184;51.376;7.148;2022-11-20T01:13:41;-0.10;99.90
10278;DHT22;5184;51.376;7.148;2022-11-20T01:16:23;-0.10;99.90
10278;DHT22;5184;51.376;7.148;2022-11-20T01:18:50;-0.10;1.00
10278;DHT22;5184;51.376;7.148;2022-11-20T01:21:19;0.10;30.80
10278;DHT22;5184;51.376;7.148;2022-11-20T01:23:45;0.10;30.60
10278;DHT22;5184;51.376;7.148;2022-11-20T01:26:14;0.20;67.20
10278;DHT22;5184;51.376;7.148;2022-11-20T01:28:39;0.20;1.00
10278;DHT22;5184;51.376;7.148;2022-11-20T01:31:13;0.30;99.90
10278;DHT22;5184;51.376;7.148;2022-11-20T01:33:39;0.20;99.90
10278;DHT22;5184;51.376;7.148;2022-11-20T01:36:06;0.30;1.00
10278;DHT22;5184;51.376;7.148;2022-11-20T01:38:33;0.30;1.00
10278;DHT22;5184;51.376;7.148;2022-11-20T01:41:00;0.20;1.00
10278;DHT22;5184;51.376;7.148;2022-11-20T01:43:26;0.40;1.00
10278;DHT22;5184;51.376;7.148;2022-11-20T01:45:57;0.40;1.00
10278;DHT22;5184;51.376;7.148;2022-11-20T01:48:22;0.30;99.90
10278;DHT22;5184;51.376;7.148;2022-11-20T01:50:50;0.30;99.90
10278;DHT22;5184;51.376;7.148;2022-11-20T01:53:17;0.30;1.00
10278;DHT22;5184;51.376;7.148;2022-11-20T01:55:46;0.40;1.00
10278;DHT22;5184;51.376;7.148;2022-11-20T01:58:11;0.40;1.00
10278;DHT22;5184;51.376;7.148;2022-11-20T02:00:37;0.40;1.00
10278;DHT22;5184;51.376;7.148;2022-11-20T02:03:05;0.40;1.00
10278;DHT22;5184;51.376;7.148;2022-11-20T02:05:33;0.30;58.40
10278;DHT22;5184;51.376;7.148;2022-11-20T02:07:59;0.30;99.90
10278;DHT22;5184;51.376;7.148;2022-11-20T02:10:26;0.30;99.90
10278;DHT22;5184;51.376;7.148;2022-11-20T02:12:52;0.30;99.90
10278;DHT22;5184;51.376;7.148;2022-11-20T02:15:24;0.40;99.90
10278;DHT22;5184;51.376;7.148;2022-11-20T02:17:51;0.50;99.90
10278;DHT22;5184;51.376;7.148;2022-11-20T02:20:18;0.40;99.90
10278;DHT22;5184;51.376;7.148;2022-11-20T02:25:28;0.40;99.90
10278;DHT22;5184;51.376;7.148;2022-11-20T02:27:55;0.40;99.90
10278;DHT22;5184;51.376;7.148;2022-11-20T02:30:22;0.40;99.90
10278;DHT22;5184;51.376;7.148;2022-11-20T02:32:48;0.50;1.00
10278;DHT22;5184;51.376;7.148;2022-11-20T02:35:38;0.60;99.90
10278;DHT22;5184;51.376;7.148;2022-11-20T02:38:02;0.60;99.90
10278;DHT22;5184;51.376;7.148;2022-11-20T02:40:28;0.60;99.90
10278;DHT22;5184;51.376;7.148;2022-11-20T02:42:55;0.70;99.90
10278;DHT22;5184;51.376;7.148;2022-11-20T02:45:22;0.50;99.90
10278;DHT22;5184;51.376;7.148;2022-11-20T02:47:49;0.50;1.00
10278;DHT22;5184;51.376;7.148;2022-11-20T02:50:16;0.50;1.00
10278;DHT22;5184;51.376;7.148;2022-11-20T02:52:43;0.50;1.00
10278;DHT22;5184;51.376;7.148;2022-11-20T02:55:09;0.60;1.00
10278;DHT22;5184;51.376;7.148;2022-11-20T02:57:36;0.60;1.00
10278;DHT22;5184;51.376;7.148;2022-11-20T03:00:03;0.70;1.00
10278;DHT22;5184;51.376;7.148;2022-11-20T03:02:30;0.70;1.00
10278;DHT22;5184;51.376;7.148;2022-11-20T03:04:56;0.60;1.00
10278;DHT22;5184;51.376;7.148;2022-11-20T03:07:23;0.60;1.00
10278;DHT22;5184;51.376;7.148;2022-11-20T03:09:50;0.70;1.00
10278;DHT22;5184;51.376;7.148;2022-11-20T03:12:17;0.70;1.00
10278;DHT22;5184;51.376;7.148;2022-11-20T03:14:43;0.80;1.00
10278;DHT22;5184;51.376;7.148;2022-11-20T03:17:10;0.80;1.00
10278;DHT22;5184;51.376;7.148;2022-11-20T03:19:37;0.90;1.00
10278;DHT22;5184;51.376;7.148;2022-11-20T03:22:05;1.00;1.00
10278;DHT22;5184;51.376;7.148;2022-11-20T03:24:32;1.00;1.00
10278;DHT22;5184;51.376;7.148;2022-11-20T03:26:59;1.10;1.00
10278;DHT22;5184;51.376;7.148;2022-11-20T03:29:26;1.10;1.00
10278;DHT22;5184;51.376;7.148;2022-11-20T03:31:53;1.10;1.00
10278;DHT22;5184;51.376;7.148;2022-11-20T03:34:19;1.10;1.00
10278;DHT22;5184;51.376;7.148;2022-11-20T03:36:47;1.20;1.00
10278;DHT22;5184;51.376;7.148;2022-11-20T03:39:14;1.10;99.90
10278;DHT22;5184;51.376;7.148;2022-11-20T03:41:41;1.10;99.90
10278;DHT22;5184;51.376;7.148;2022-11-20T03:44:08;1.10;1.00
10278;DHT22;5184;51.376;7.148;2022-11-20T03:46:34;1.10;1.00
10278;DHT22;5184;51.376;7.148;2022-11-20T03:49:01;1.20;1.00
10278;DHT22;5184;51.376;7.148;2022-11-20T03:51:29;1.10;1.00
10278;DHT22;5184;51.376;7.148;2022-11-20T03:53:57;1.10;1.00
10278;DHT22;5184;51.376;7.148;2022-11-20T03:56:24;1.20;1.00
10278;DHT22;5184;51.376;7.148;2022-11-20T03:58:51;1.10;1.00
10278;DHT22;5184;51.376;7.148;2022-11-20T04:01:19;1.10;1.00
10278;DHT22;5184;51.376;7.148;2022-11-20T04:03:45;1.10;1.00
10278;DHT22;5184;51.376;7.148;2022-11-20T04:06:13;1.20;1.00
10278;DHT22;5184;51.376;7.148;2022-11-20T04:08:39;1.20;1.00
10278;DHT22;5184;51.376;7.148;2022-11-20T04:11:09;1.20;1.00
10278;DHT22;5184;51.376;7.148;2022-11-20T04:13:35;1.20;1.00
10278;DHT22;5184;51.376;7.148;2022-11-20T04:16:03;1.10;1.00
10278;DHT22;5184;51.376;7.148;2022-11-20T04:18:29;1.10;1.00
10278;DHT22;5184;51.376;7.148;2022-11-20T04:20:57;1.20;1.00
10278;DHT22;5184;51.376;7.148;2022-11-20T04:23:24;1.20;1.00
10278;DHT22;5184;51.376;7.148;2022-11-20T04:25:51;1.20;1.00
10278;DHT22;5184;51.376;7.148;2022-11-20T04:28:18;1.20;1.00
10278;DHT22;5184;51.376;7.148;2022-11-20T04:30:46;1.20;1.00
10278;DHT22;5184;51.376;7.148;2022-11-20T04:33:13;1.20;1.00
10278;DHT22;5184;51.376;7.148;2022-11-20T04:35:40;1.20;1.00
10278;DHT22;5184;51.376;7.148;2022-11-20T04:38:08;1.30;1.00
10278;DHT22;5184;51.376;7.148;2022-11-20T04:40:34;1.30;1.00
10278;DHT22;5184;51.376;7.148;2022-11-20T04:43:01;1.30;1.00
10278;DHT22;5184;51.376;7.148;2022-11-20T04:45:28;1.30;1.00
10278;DHT22;5184;51.376;7.148;2022-11-20T04:47:54;1.40;1.00
10278;DHT22;5184;51.376;7.148;2022-11-20T04:50:22;1.40;1.00
10278;DHT22;5184;51.376;7.148;2022-11-20T04:52:49;1.40;1.00
10278;DHT22;5184;51.376;7.148;2022-11-20T04:55:16;1.70;1.00
10278;DHT22;5184;51.376;7.148;2022-11-20T04:57:44;1.50;1.00
10278;DHT22;5184;51.376;7.148;2022-11-20T05:00:11;1.50;1.00
10278;DHT22;5184;51.376;7.148;2022-11-20T05:02:38;1.50;1.00
10278;DHT22;5184;51.376;7.148;2022-11-20T05:05:06;1.60;1.00
10278;DHT22;5184;51.376;7.148;2022-11-20T05:07:32;1.60;1.00
10278;DHT22;5184;51.376;7.148;2022-11-20T05:10:00;1.70;1.00
10278;DHT22;5184;51.376;7.148;2022-11-20T05:12:27;1.70;1.00
10278;DHT22;5184;51.376;7.148;2022-11-20T05:14:54;1.70;1.00
10278;DHT22;5184;51.376;7.148;2022-11-20T05:17:22;1.60;99.90
10278;DHT22;5184;51.376;7.148;2022-11-20T05:19:48;1.60;99.90
10278;DHT22;5184;51.376;7.148;2022-11-20T05:22:15;1.50;99.90
10278;DHT22;5184;51.376;7.148;2022-11-20T05:24:42;1.60;99.90
10278;DHT22;5184;51.376;7.148;2022-11-20T05:27:08;1.60;1.00
10278;DHT22;5184;51.376;7.148;2022-11-20T05:29:35;-0.60;1.00
10278;DHT22;5184;51.376;7.148;2022-11-20T05:32:02;1.70;99.90
10278;DHT22;5184;51.376;7.148;2022-11-20T05:34:29;1.70;99.90
10278;DHT22;5184;51.376;7.148;2022-11-20T05:36:56;1.60;1.00
10278;DHT22;5184;51.376;7.148;2022-11-20T05:39:24;1.60;99.90
10278;DHT22;5184;51.376;7.148;2022-11-20T05:41:50;1.60;99.90
10278;DHT22;5184;51.376;7.148;2022-11-20T05:44:17;1.70;1.00
10278;DHT22;5184;51.376;7.148;2022-11-20T05:46:43;1.70;1.00
10278;DHT22;5184;51.376;7.148;2022-11-20T05:49:10;1.80;1.00
10278;DHT22;5184;51.376;7.148;2022-11-20T05:51:37;1.90;2.90
10278;DHT22;5184;51.376;7.148;2022-11-20T05:54:04;1.90;99.90
10278;DHT22;5184;51.376;7.148;2022-11-20T05:56:31;1.90;99.90
10278;DHT22;5184;51.376;7.148;2022-11-20T05:58:59;1.90;1.00
10278;DHT22;5184;51.376;7.148;2022-11-20T06:01:26;1.90;99.90
10278;DHT22;5184;51.376;7.148;2022-11-20T06:03:53;1.90;99.90
10278;DHT22;5184;51.376;7.148;2022-11-20T06:06:19;1.80;1.00
10278;DHT22;5184;51.376;7.148;2022-11-20T06:08:46;1.90;99.90
10278;DHT22;5184;51.376;7.148;2022-11-20T06:11:13;2.00;1.00
10278;DHT22;5184;51.376;7.148;2022-11-20T06:13:39;2.00;15.80
10278;DHT22;5184;51.376;7.148;2022-11-20T06:16:06;1.90;1.00
10278;DHT22;5184;51.376;7.148;2022-11-20T06:18:34;2.00;99.90
10278;DHT22;5184;51.376;7.148;2022-11-20T06:21:06;2.00;99.90
10278;DHT22;5184;51.376;7.148;2022-11-20T06:23:32;1.90;99.90
10278;DHT22;5184;51.376;7.148;2022-11-20T06:26:01;2.00;99.90
10278;DHT22;5184;51.376;7.148;2022-11-20T06:28:27;1.90;1.00
10278;DHT22;5184;51.376;7.148;2022-11-20T06:30:54;1.80;1.00
10278;DHT22;5184;51.376;7.148;2022-11-20T06:33:21;1.70;99.90
10278;DHT22;5184;51.376;7.148;2022-11-20T06:35:47;1.70;99.90
10278;DHT22;5184;51.376;7.148;2022-11-20T06:38:14;1.60;99.90
10278;DHT22;5184;51.376;7.148;2022-11-20T06:40:41;1.60;1.00
10278;DHT22;5184;51.376;7.148;2022-11-20T06:43:09;1.60;99.90
10278;DHT22;5184;51.376;7.148;2022-11-20T06:45:35;1.60;99.90
10278;DHT22;5184;51.376;7.148;2022-11-20T06:48:03;1.70;99.90
10278;DHT22;5184;51.376;7.148;2022-11-20T06:50:29;1.70;99.90
10278;DHT22;5184;51.376;7.148;2022-11-20T06:52:56;1.70;1.00
10278;DHT22;5184;51.376;7.148;2022-11-20T06:55:22;1.60;99.90
10278;DHT22;5184;51.376;7.148;2022-11-20T06:57:50;1.60;99.90
10278;DHT22;5184;51.376;7.148;2022-11-20T07:00:17;1.60;1.00
10278;DHT22;5184;51.376;7.148;2022-11-20T07:02:44;1.60;1.00
10278;DHT22;5184;51.376;7.148;2022-11-20T07:05:10;1.60;1.00
10278;DHT22;5184;51.376;7.148;2022-11-20T07:07:37;1.70;1.00
10278;DHT22;5184;51.376;7.148;2022-11-20T07:10:04;1.70;1.00
10278;DHT22;5184;51.376;7.148;2022-11-20T07:12:31;1.70;99.90
10278;DHT22;5184;51.376;7.148;2022-11-20T07:14:57;1.70;99.90
10278;DHT22;5184;51.376;7.148;2022-11-20T07:17:24;1.60;1.00
10278;DHT22;5184;51.376;7.148;2022-11-20T07:19:50;1.60;1.00
10278;DHT22;5184;51.376;7.148;2022-11-20T07:22:17;1.50;99.90
10278;DHT22;5184;51.376;7.148;2022-11-20T07:24:44;1.40;99.90
10278;DHT22;5184;51.376;7.148;2022-11-20T07:27:12;1.40;1.00
10278;DHT22;5184;51.376;7.148;2022-11-20T07:29:39;1.50;87.30
10278;DHT22;5184;51.376;7.148;2022-11-20T07:32:06;1.50;99.90
10278;DHT22;5184;51.376;7.148;2022-11-20T07:34:33;1.50;99.90
10278;DHT22;5184;51.376;7.148;2022-11-20T07:37:00;1.60;99.90
10278;DHT22;5184;51.376;7.148;2022-11-20T07:39:26;1.70;99.90
10278;DHT22;5184;51.376;7.148;2022-11-20T07:41:53;1.70;79.20
10278;DHT22;5184;51.376;7.148;2022-11-20T07:44:20;1.80;1.00
10278;DHT22;5184;51.376;7.148;2022-11-20T07:46:48;1.80;1.00
10278;DHT22;5184;51.376;7.148;2022-11-20T07:49:15;1.90;99.90
10278;DHT22;5184;51.376;7.148;2022-11-20T07:51:42;1.90;99.90
10278;DHT22;5184;51.376;7.148;2022-11-20T07:54:09;1.90;99.90
10278;DHT22;5184;51.376;7.148;2022-11-20T07:56:36;1.90;32.50
10278;DHT22;5184;51.376;7.148;2022-11-20T07:59:02;1.90;49.10
10278;DHT22;5184;51.376;7.148;2022-11-20T08:01:29;2.00;1.00
10278;DHT22;5184;51.376;7.148;2022-11-20T08:03:57;2.00;1.00
10278;DHT22;5184;51.376;7.148;2022-11-20T08:06:24;2.00;1.00
10278;DHT22;5184;51.376;7.148;2022-11-20T08:08:52;2.10;1.00
10278;DHT22;5184;51.376;7.148;2022-11-20T08:11:19;2.10;1.00
10278;DHT22;5184;51.376;7.148;2022-11-20T08:13:51;2.10;1.00
10278;DHT22;5184;51.376;7.148;2022-11-20T08:16:24;2.10;99.90
10278;DHT22;5184;51.376;7.148;2022-11-20T08:18:50;2.00;1.00
10278;DHT22;5184;51.376;7.148;2022-11-20T08:21:17;2.00;99.90
10278;DHT22;5184;51.376;7.148;2022-11-20T08:23:43;1.90;1.00
10278;DHT22;5184;51.376;7.148;2022-11-20T08:26:10;1.80;99.90
10278;DHT22;5184;51.376;7.148;2022-11-20T08:28:37;1.70;1.00
10278;DHT22;5184;51.376;7.148;2022-11-20T08:31:04;1.70;1.00
10278;DHT22;5184;51.376;7.148;2022-11-20T08:33:31;1.70;1.00
10278;DHT22;5184;51.376;7.148;2022-11-20T08:36:00;1.60;99.90
10278;DHT22;5184;51.376;7.148;2022-11-20T08:38:26;1.60;99.90
10278;DHT22;5184;51.376;7.148;2022-11-20T08:40:56;1.60;99.90
10278;DHT22;5184;51.376;7.148;2022-11-20T08:43:25;1.70;1.00
10278;DHT22;5184;51.376;7.148;2022-11-20T08:45:52;1.80;99.90
10278;DHT22;5184;51.376;7.148;2022-11-20T08:48:18;1.90;1.00
10278;DHT22;5184;51.376;7.148;2022-11-20T08:50:45;2.10;1.00
10278;DHT22;5184;51.376;7.148;2022-11-20T08:53:12;2.30;99.90
10278;DHT22;5184;51.376;7.148;2022-11-20T08:55:40;2.40;99.90
10278;DHT22;5184;51.376;7.148;2022-11-20T08:58:06;2.30;99.90
10278;DHT22;5184;51.376;7.148;2022-11-20T09:00:33;2.50;99.90
10278;DHT22;5184;51.376;7.148;2022-11-20T09:03:00;2.60;79.60
10278;DHT22;5184;51.376;7.148;2022-11-20T09:05:26;2.60;1.00
10278;DHT22;5184;51.376;7.148;2022-11-20T09:07:59;2.70;1.00
10278;DHT22;5184;51.376;7.148;2022-11-20T09:10:26;2.90;99.90
10278;DHT22;5184;51.376;7.148;2022-11-20T09:12:53;3.70;99.90
10278;DHT22;5184;51.376;7.148;2022-11-20T09:15:19;3.10;99.90
10278;DHT22;5184;51.376;7.148;2022-11-20T09:17:53;3.10;99.90
10278;DHT22;5184;51.376;7.148;2022-11-20T09:20:19;3.20;1.00
10278;DHT22;5184;51.376;7.148;2022-11-20T09:22:45;3.30;1.00
10278;DHT22;5184;51.376;7.148;2022-11-20T09:25:12;3.30;1.00
10278;DHT22;5184;51.376;7.148;2022-11-20T09:27:39;3.20;99.90
10278;DHT22;5184;51.376;7.148;2022-11-20T09:30:06;3.20;1.00
10278;DHT22;5184;51.376;7.148;2022-11-20T09:32:33;3.30;1.00
10278;DHT22;5184;51.376;7.148;2022-11-20T09:34:59;3.30;99.90
10278;DHT22;5184;51.376;7.148;2022-11-20T09:37:26;3.40;1.00
10278;DHT22;5184;51.376;7.148;2022-11-20T09:39:53;3.30;1.00
10278;DHT22;5184;51.376;7.148;2022-11-20T09:42:25;3.30;99.90
10278;DHT22;5184;51.376;7.148;2022-11-20T09:47:46;3.40;99.90
10278;DHT22;5184;51.376;7.148;2022-11-20T09:50:25;3.60;99.90
10278;DHT22;5184;51.376;7.148;2022-11-20T09:52:59;3.60;99.90
10278;DHT22;5184;51.376;7.148;2022-11-20T09:55:22;3.60;1.00
10278;DHT22;5184;51.376;7.148;2022-11-20T09:57:51;3.50;99.90
10278;DHT22;5184;51.376;7.148;2022-11-20T10:00:17;3.60;99.90
10278;DHT22;5184;51.376;7.148;2022-11-20T10:02:52;3.50;99.90
10278;DHT22;5184;51.376;7.148;2022-11-20T10:05:23;3.50;99.90
10278;DHT22;5184;51.376;7.148;2022-11-20T10:10:42;3.30;99.90
10278;DHT22;5184;51.376;7.148;2022-11-20T10:13:14;3.40;99.90
10278;DHT22;5184;51.376;7.148;2022-11-20T10:19:00;3.50;99.90
10278;DHT22;5184;51.376;7.148;2022-11-20T10:21:11;3.60;58.30
10278;DHT22;5184;51.376;7.148;2022-11-20T10:24:19;3.50;54.80
10278;DHT22;5184;51.376;7.148;2022-11-20T10:29:16;3.60;99.90
10278;DHT22;5184;51.376;7.148;2022-11-20T10:31:48;3.60;16.60
10278;DHT22;5184;51.376;7.148;2022-11-20T10:34:18;3.80;5.40
10278;DHT22;5184;51.376;7.148;2022-11-20T10:36:47;3.70;1.00
10278;DHT22;5184;51.376;7.148;2022-11-20T10:39:24;3.80;96.80
10278;DHT22;5184;51.376;7.148;2022-11-20T10:41:49;6.10;8.20
10278;DHT22;5184;51.376;7.148;2022-11-20T10:44:17;3.90;19.50
10278;DHT22;5184;51.376;7.148;2022-11-20T10:46:44;3.90;91.20
10278;DHT22;5184;51.376;7.148;2022-11-20T10:49:13;4.00;1.00
10278;DHT22;5184;51.376;7.148;2022-11-20T10:51:43;4.00;1.00
10278;DHT22;5184;51.376;7.148;2022-11-20T10:54:28;4.30;1.00
10278;DHT22;5184;51.376;7.148;2022-11-20T10:56:54;4.30;1.00
10278;DHT22;5184;51.376;7.148;2022-11-20T11:01:58;4.50;1.00
10278;DHT22;5184;51.376;7.148;2022-11-20T11:04:44;4.40;1.00
10278;DHT22;5184;51.376;7.148;2022-11-20T11:07:15;4.40;1.00
10278;DHT22;5184;51.376;7.148;2022-11-20T11:09:44;5.60;1.00
10278;DHT22;5184;51.376;7.148;2022-11-20T11:12:09;4.60;1.00
10278;DHT22;5184;51.376;7.148;2022-11-20T11:14:43;4.70;1.00
10278;DHT22;5184;51.376;7.148;2022-11-20T11:17:18;4.70;1.00
10278;DHT22;5184;51.376;7.148;2022-11-20T11:19:36;4.80;99.90
10278;DHT22;5184;51.376;7.148;2022-11-20T11:22:02;4.80;1.00
10278;DHT22;5184;51.376;7.148;2022-11-20T11:24:29;3.10;1.00
10278;DHT22;5184;51.376;7.148;2022-11-20T11:26:59;4.80;1.00
10278;DHT22;5184;51.376;7.148;2022-11-20T11:29:25;4.70;99.90
10278;DHT22;5184;51.376;7.148;2022-11-20T11:32:02;4.70;1.00
10278;DHT22;5184;51.376;7.148;2022-11-20T11:34:18;4.70;1.00
10278;DHT22;5184;51.376;7.148;2022-11-20T11:36:54;4.60;1.00
10278;DHT22;5184;51.376;7.148;2022-11-20T11:39:18;3.80;1.00
10278;DHT22;5184;51.376;7.148;2022-11-20T11:41:44;4.90;1.00
10278;DHT22;5184;51.376;7.148;2022-11-20T11:46:53;5.00;1.00
10278;DHT22;5184;51.376;7.148;2022-11-20T11:49:19;5.00;1.00
10278;DHT22;5184;51.376;7.148;2022-11-20T11:52:15;5.00;1.00
10278;DHT22;5184;51.376;7.148;2022-11-20T11:54:50;4.90;1.00
10278;DHT22;5184;51.376;7.148;2022-11-20T11:57:23;5.10;1.00
10278;DHT22;5184;51.376;7.148;2022-11-20T11:59:54;5.10;1.00
10278;DHT22;5184;51.376;7.148;2022-11-20T12:02:35;5.10;1.00
10278;DHT22;5184;51.376;7.148;2022-11-20T12:05:03;5.10;1.00
10278;DHT22;5184;51.376;7.148;2022-11-20T12:07:35;5.00;1.00
10278;DHT22;5184;51.376;7.148;2022-11-20T12:09:57;5.00;1.00
10278;DHT22;5184;51.376;7.148;2022-11-20T12:12:30;4.90;1.00
10278;DHT22;5184;51.376;7.148;2022-11-20T12:14:54;4.90;1.00
10278;DHT22;5184;51.376;7.148;2022-11-20T12:17:21;4.80;2.90
10278;DHT22;5184;51.376;7.148;2022-11-20T12:19:47;3.30;96.20
10278;DHT22;5184;51.376;7.148;2022-11-20T12:25:30;4.60;99.90
10278;DHT22;5184;51.376;7.148;2022-11-20T12:27:44;4.60;99.90
10278;DHT22;5184;51.376;7.148;2022-11-20T12:30:12;4.80;99.90
10278;DHT22;5184;51.376;7.148;2022-11-20T12:33:00;4.90;99.90
10278;DHT22;5184;51.376;7.148;2022-11-20T12:35:50;4.90;99.90
10278;DHT22;5184;51.376;7.148;2022-11-20T12:38:31;4.90;99.90
10278;DHT22;5184;51.376;7.148;2022-11-20T12:43:46;4.80;99.90
10278;DHT22;5184;51.376;7.148;2022-11-20T12:46:20;4.70;1.00
10278;DHT22;5184;51.376;7.148;2022-11-20T12:49:04;4.60;1.00
10278;DHT22;5184;51.376;7.148;2022-11-20T12:51:38;4.60;99.90
10278;DHT22;5184;51.376;7.148;2022-11-20T12:56:52;4.70;1.00
10278;DHT22;5184;51.376;7.148;2022-11-20T12:59:43;4.70;99.90
10278;DHT22;5184;51.376;7.148;2022-11-20T13:02:08;4.70;99.90
10278;DHT22;5184;51.376;7.148;2022-11-20T13:04:39;4.70;99.90
10278;DHT22;5184;51.376;7.148;2022-11-20T13:07:01;4.70;99.90
10278;DHT22;5184;51.376;7.148;2022-11-20T13:09:27;4.80;99.90
10278;DHT22;5184;51.376;7.148;2022-11-20T13:12:01;4.80;99.90
10278;DHT22;5184;51.376;7.148;2022-11-20T13:14:31;4.80;99.90
10278;DHT22;5184;51.376;7.148;2022-11-20T13:17:16;4.80;1.00
10278;DHT22;5184;51.376;7.148;2022-11-20T13:19:40;4.80;1.00
10278;DHT22;5184;51.376;7.148;2022-11-20T13:22:08;4.80;1.00
10278;DHT22;5184;51.376;7.148;2022-11-20T13:24:34;4.80;1.00
10278;DHT22;5184;51.376;7.148;2022-11-20T13:27:22;4.80;1.00
10278;DHT22;5184;51.376;7.148;2022-11-20T13:29:59;4.80;1.00
10278;DHT22;5184;51.376;7.148;2022-11-20T13:32:24;4.90;99.90
10278;DHT22;5184;51.376;7.148;2022-11-20T13:35:08;4.90;99.90
10278;DHT22;5184;51.376;7.148;2022-11-20T13:37:34;4.90;1.00
10278;DHT22;5184;51.376;7.148;2022-11-20T13:40:20;4.80;1.00
10278;DHT22;5184;51.376;7.148;2022-11-20T13:42:46;4.90;1.00
10278;DHT22;5184;51.376;7.148;2022-11-20T13:45:23;4.90;1.00
10278;DHT22;5184;51.376;7.148;2022-11-20T13:47:50;5.00;1.00
10278;DHT22;5184;51.376;7.148;2022-11-20T13:50:16;5.00;1.00
10278;DHT22;5184;51.376;7.148;2022-11-20T13:52:52;5.10;1.00
10278;DHT22;5184;51.376;7.148;2022-11-20T13:55:25;5.10;1.00
10278;DHT22;5184;51.376;7.148;2022-11-20T13:57:54;5.20;1.00
10278;DHT22;5184;51.376;7.148;2022-11-20T14:00:21;5.20;1.00
10278;DHT22;5184;51.376;7.148;2022-11-20T14:02:57;5.20;1.00
10278;DHT22;5184;51.376;7.148;2022-11-20T14:05:20;5.20;1.00
10278;DHT22;5184;51.376;7.148;2022-11-20T14:07:47;5.30;2.70
10278;DHT22;5184;51.376;7.148;2022-11-20T14:10:25;5.20;98.00
10278;DHT22;5184;51.376;7.148;2022-11-20T14:12:51;5.20;96.70
10278;DHT22;5184;51.376;7.148;2022-11-20T14:15:28;5.20;93.50
10278;DHT22;5184;51.376;7.148;2022-11-20T14:17:54;5.10;99.90
10278;DHT22;5184;51.376;7.148;2022-11-20T14:20:20;4.90;99.90
10278;DHT22;5184;51.376;7.148;2022-11-20T14:22:48;5.00;1.00
10278;DHT22;5184;51.376;7.148;2022-11-20T14:25:24;5.00;1.00
10278;DHT22;5184;51.376;7.148;2022-11-20T14:27:51;4.90;1.00
10278;DHT22;5184;51.376;7.148;2022-11-20T14:30:21;5.00;1.00
10278;DHT22;5184;51.376;7.148;2022-11-20T14:32:46;5.00;1.00
10278;DHT22;5184;51.376;7.148;2022-11-20T14:35:17;4.90;99.90
10278;DHT22;5184;51.376;7.148;2022-11-20T14:37:41;4.80;99.90
10278;DHT22;5184;51.376;7.148;2022-11-20T14:40:27;4.80;1.00
10278;DHT22;5184;51.376;7.148;2022-11-20T14:42:53;4.80;1.00
10278;DHT22;5184;51.376;7.148;2022-11-20T14:45:19;4.80;1.00
10278;DHT22;5184;51.376;7.148;2022-11-20T14:47:46;4.80;99.90
10278;DHT22;5184;51.376;7.148;2022-11-20T14:50:19;5.00;1.00
10278;DHT22;5184;51.376;7.148;2022-11-20T14:52:52;4.90;1.00
10278;DHT22;5184;51.376;7.148;2022-11-20T14:55:25;5.00;99.90
10278;DHT22;5184;51.376;7.148;2022-11-20T14:57:54;4.90;99.90
10278;DHT22;5184;51.376;7.148;2022-11-20T15:00:19;4.80;99.90
10278;DHT22;5184;51.376;7.148;2022-11-20T15:02:45;4.80;1.00
10278;DHT22;5184;51.376;7.148;2022-11-20T15:05:12;4.80;1.00
10278;DHT22;5184;51.376;7.148;2022-11-20T15:07:40;4.80;1.00
10278;DHT22;5184;51.376;7.148;2022-11-20T15:10:08;4.80;1.00
10278;DHT22;5184;51.376;7.148;2022-11-20T15:12:36;4.80;64.20
10278;DHT22;5184;51.376;7.148;2022-11-20T15:15:02;4.80;97.40
10278;DHT22;5184;51.376;7.148;2022-11-20T15:17:29;4.80;96.30
10278;DHT22;5184;51.376;7.148;2022-11-20T15:19:55;4.80;99.90
10278;DHT22;5184;51.376;7.148;2022-11-20T15:22:22;4.70;99.90
10278;DHT22;5184;51.376;7.148;2022-11-20T15:24:49;4.70;1.00
10278;DHT22;5184;51.376;7.148;2022-11-20T15:27:17;4.60;93.30
10278;DHT22;5184;51.376;7.148;2022-11-20T15:29:44;4.60;1.00
10278;DHT22;5184;51.376;7.148;2022-11-20T15:32:11;4.60;99.90
10278;DHT22;5184;51.376;7.148;2022-11-20T15:34:38;4.60;99.90
10278;DHT22;5184;51.376;7.148;2022-11-20T15:37:05;4.60;1.00
10278;DHT22;5184;51.376;7.148;2022-11-20T15:39:31;4.60;99.90
10278;DHT22;5184;51.376;7.148;2022-11-20T15:41:58;4.60;1.00
10278;DHT22;5184;51.376;7.148;2022-11-20T15:44:24;4.50;1.00
10278;DHT22;5184;51.376;7.148;2022-11-20T15:46:52;4.50;1.00
10278;DHT22;5184;51.376;7.148;2022-11-20T15:49:19;4.50;99.90
10278;DHT22;5184;51.376;7.148;2022-11-20T15:51:47;4.50;99.90
10278;DHT22;5184;51.376;7.148;2022-11-20T15:54:14;4.50;99.90
10278;DHT22;5184;51.376;7.148;2022-11-20T15:56:40;4.50;99.90
10278;DHT22;5184;51.376;7.148;2022-11-20T15:59:06;4.50;99.90
10278;DHT22;5184;51.376;7.148;2022-11-20T16:01:34;4.60;99.90
10278;DHT22;5184;51.376;7.148;2022-11-20T16:04:01;4.60;99.90
10278;DHT22;5184;51.376;7.148;2022-11-20T16:06:28;4.60;1.00
10278;DHT22;5184;51.376;7.148;2022-11-20T16:08:55;4.60;1.00
10278;DHT22;5184;51.376;7.148;2022-11-20T16:11:22;4.60;1.00
10278;DHT22;5184;51.376;7.148;2022-11-20T16:13:48;4.60;1.00
10278;DHT22;5184;51.376;7.148;2022-11-20T16:16:23;4.60;1.00
10278;DHT22;5184;51.376;7.148;2022-11-20T16:18:49;4.50;1.00
10278;DHT22;5184;51.376;7.148;2022-11-20T16:21:15;4.50;4.00
10278;DHT22;5184;51.376;7.148;2022-11-20T16:23:42;4.60;64.10
10278;DHT22;5184;51.376;7.148;2022-11-20T16:26:12;4.60;98.60
10278;DHT22;5184;51.376;7.148;2022-11-20T16:28:38;4.60;99.90
10278;DHT22;5184;51.376;7.148;2022-11-20T16:31:12;4.70;99.90
10278;DHT22;5184;51.376;7.148;2022-11-20T16:33:37;4.60;99.90
10278;DHT22;5184;51.376;7.148;2022-11-20T16:36:07;4.70;99.90
10278;DHT22;5184;51.376;7.148;2022-11-20T16:38:34;4.70;99.90
10278;DHT22;5184;51.376;7.148;2022-11-20T16:41:02;4.70;99.90
10278;DHT22;5184;51.376;7.148;2022-11-20T16:43:29;4.70;99.90